createdAt,value
2018-07-07T00:00:35.696Z,0.00
2018-07-07T00:01:35.659Z,0.00
2018-07-07T00:02:35.571Z,0.00
2018-07-07T00:03:35.666Z,0.00
2018-07-07T00:04:35.565Z,0.00
2018-07-07T00:05:35.498Z,0.00
2018-07-07T00:06:35.513Z,0.00
2018-07-07T00:07:35.461Z,0.00
2018-07-07T00:08:35.507Z,0.00
2018-07-07T00:09:35.439Z,0.00
2018-07-07T00:10:35.391Z,0.00
2018-07-07T00:11:35.403Z,0.00
2018-07-07T00:12:35.355Z,0.00
2018-07-07T00:13:35.302Z,0.00
2018-07-07T00:14:35.325Z,0.00
2018-07-07T00:15:35.295Z,0.00
2018-07-07T00:16:35.229Z,0.00
2018-07-07T00:17:35.244Z,0.00
2018-07-07T00:18:35.278Z,0.00
2018-07-07T00:19:35.149Z,0.00
2018-07-07T00:20:35.181Z,0.00
2018-07-07T00:21:35.120Z,0.00
2018-07-07T00:22:35.280Z,0.00
2018-07-07T00:23:35.112Z,0.00
2018-07-07T00:24:35.030Z,0.00
2018-07-07T00:25:35.061Z,0.00
2018-07-07T00:26:35.092Z,0.00
2018-07-07T00:27:35.041Z,0.00
2018-07-07T00:28:34.977Z,0.00
2018-07-07T00:29:35.009Z,0.00
2018-07-07T00:30:34.967Z,0.00
2018-07-07T00:31:35.029Z,0.00
2018-07-07T00:32:34.919Z,0.00
2018-07-07T00:33:34.807Z,0.00
2018-07-07T00:34:34.844Z,0.00
2018-07-07T00:35:34.857Z,0.00
2018-07-07T00:36:34.857Z,0.00
2018-07-07T00:37:34.716Z,0.00
2018-07-07T00:38:34.701Z,0.00
2018-07-07T00:39:34.711Z,0.00
2018-07-07T00:40:34.656Z,0.00
2018-07-07T00:41:34.658Z,0.00
2018-07-07T00:42:34.593Z,0.00
2018-07-07T00:43:34.597Z,0.00
2018-07-07T00:44:34.541Z,0.00
2018-07-07T00:45:34.574Z,0.00
2018-07-07T00:46:34.505Z,0.00
2018-07-07T00:47:34.559Z,0.00
2018-07-07T00:48:34.509Z,0.00
2018-07-07T00:49:34.413Z,0.00
2018-07-07T00:50:34.593Z,0.00
2018-07-07T00:51:34.360Z,0.00
2018-07-07T00:52:34.398Z,0.00
2018-07-07T00:53:34.366Z,0.00
2018-07-07T00:54:34.357Z,0.00
2018-07-07T00:55:34.279Z,0.00
2018-07-07T00:56:34.246Z,0.00
2018-07-07T00:57:35.008Z,0.00
2018-07-07T00:58:34.184Z,0.00
2018-07-07T00:59:34.187Z,0.00
2018-07-07T01:00:34.143Z,0.00
2018-07-07T01:01:34.188Z,0.00
2018-07-07T01:02:34.202Z,0.00
2018-07-07T01:03:34.103Z,0.00
2018-07-07T01:04:34.100Z,0.00
2018-07-07T01:05:34.159Z,0.00
2018-07-07T01:06:34.006Z,0.00
2018-07-07T01:07:33.966Z,0.00
2018-07-07T01:08:33.963Z,0.00
2018-07-07T01:09:33.948Z,0.00
2018-07-07T01:10:33.944Z,0.00
2018-07-07T01:11:33.971Z,0.00
2018-07-07T01:12:33.864Z,0.00
2018-07-07T01:13:33.872Z,0.00
2018-07-07T01:14:33.927Z,0.00
2018-07-07T01:15:33.784Z,0.00
2018-07-07T01:16:33.819Z,0.00
2018-07-07T01:17:33.822Z,0.00
2018-07-07T01:18:33.797Z,0.00
2018-07-07T01:19:33.732Z,0.00
2018-07-07T01:20:33.717Z,0.00
2018-07-07T01:21:33.660Z,0.00
2018-07-07T01:22:33.669Z,0.00
2018-07-07T01:23:33.569Z,0.00
2018-07-07T01:24:33.589Z,0.00
2018-07-07T01:25:33.662Z,0.00
2018-07-07T01:26:33.565Z,0.00
2018-07-07T01:27:33.517Z,0.00
2018-07-07T01:28:33.471Z,0.00
2018-07-07T01:29:33.578Z,0.00
2018-07-07T01:30:33.512Z,0.00
2018-07-07T01:31:33.423Z,0.00
2018-07-07T01:32:33.400Z,0.00
2018-07-07T01:33:33.318Z,0.00
2018-07-07T01:34:33.411Z,0.00
2018-07-07T01:35:33.337Z,0.00
2018-07-07T01:36:33.319Z,0.00
2018-07-07T01:37:33.266Z,0.00
2018-07-07T01:38:33.244Z,0.00
2018-07-07T01:39:33.180Z,0.00
2018-07-07T01:40:33.168Z,0.00
2018-07-07T01:41:33.162Z,0.00
2018-07-07T01:42:33.155Z,0.00
2018-07-07T01:43:33.242Z,0.00
2018-07-07T01:44:33.047Z,0.00
2018-07-07T01:45:33.089Z,0.00
2018-07-07T01:46:32.998Z,0.00
2018-07-07T01:47:33.060Z,0.00
2018-07-07T01:48:32.964Z,0.00
2018-07-07T01:49:32.987Z,0.00
2018-07-07T01:50:32.926Z,0.00
2018-07-07T01:51:32.928Z,0.00
2018-07-07T01:52:32.842Z,0.00
2018-07-07T01:53:32.896Z,0.00
2018-07-07T01:54:32.879Z,0.00
2018-07-07T01:55:32.874Z,0.00
2018-07-07T01:56:32.741Z,0.00
2018-07-07T01:57:32.739Z,0.00
2018-07-07T01:58:32.693Z,0.00
2018-07-07T01:59:32.673Z,0.00
2018-07-07T02:00:32.695Z,0.00
2018-07-07T02:01:32.656Z,0.00
2018-07-07T02:02:32.594Z,0.00
2018-07-07T02:03:32.589Z,0.00
2018-07-07T02:04:32.558Z,0.00
2018-07-07T02:05:32.535Z,0.00
2018-07-07T02:06:32.490Z,0.00
2018-07-07T02:07:32.486Z,0.00
2018-07-07T02:08:32.441Z,0.00
2018-07-07T02:09:32.412Z,0.00
2018-07-07T02:10:32.433Z,0.00
2018-07-07T02:11:32.371Z,0.00
2018-07-07T02:12:32.347Z,0.00
2018-07-07T02:13:32.332Z,0.00
2018-07-07T02:14:32.292Z,0.00
2018-07-07T02:15:32.267Z,0.00
2018-07-07T02:16:32.252Z,0.00
2018-07-07T02:17:32.269Z,0.00
2018-07-07T02:18:32.221Z,0.00
2018-07-07T02:19:32.181Z,0.00
2018-07-07T02:20:32.176Z,0.00
2018-07-07T02:21:32.122Z,0.00
2018-07-07T02:22:32.098Z,0.00
2018-07-07T02:23:32.102Z,0.00
2018-07-07T02:24:32.105Z,0.00
2018-07-07T02:25:32.019Z,0.00
2018-07-07T02:26:32.027Z,0.00
2018-07-07T02:27:31.969Z,0.00
2018-07-07T02:28:31.937Z,0.00
2018-07-07T02:29:31.934Z,0.00
2018-07-07T02:30:31.950Z,0.00
2018-07-07T02:31:31.944Z,0.00
2018-07-07T02:32:31.851Z,0.00
2018-07-07T02:33:31.865Z,0.00
2018-07-07T02:34:31.872Z,0.00
2018-07-07T02:35:31.781Z,0.00
2018-07-07T02:36:31.774Z,0.00
2018-07-07T02:37:31.726Z,0.00
2018-07-07T02:38:31.700Z,0.00
2018-07-07T02:39:31.699Z,0.00
2018-07-07T02:40:31.641Z,0.00
2018-07-07T02:41:31.616Z,0.00
2018-07-07T02:42:31.614Z,0.00
2018-07-07T02:43:31.580Z,0.00
2018-07-07T02:44:31.577Z,0.00
2018-07-07T02:45:31.538Z,0.00
2018-07-07T02:46:31.558Z,0.00
2018-07-07T02:47:31.468Z,0.00
2018-07-07T02:48:31.461Z,0.00
2018-07-07T02:49:31.484Z,0.00
2018-07-07T02:50:31.399Z,0.00
2018-07-07T02:51:31.377Z,0.00
2018-07-07T02:52:31.384Z,0.00
2018-07-07T02:53:31.319Z,0.00
2018-07-07T02:54:31.300Z,0.00
2018-07-07T02:55:31.273Z,0.00
2018-07-07T02:56:31.259Z,0.00
2018-07-07T02:57:31.222Z,0.00
2018-07-07T02:58:31.209Z,0.00
2018-07-07T02:59:31.190Z,0.00
2018-07-07T03:00:31.159Z,0.00
2018-07-07T03:01:31.132Z,0.00
2018-07-07T03:02:31.157Z,0.00
2018-07-07T03:03:31.073Z,0.00
2018-07-07T03:04:31.039Z,0.00
2018-07-07T03:05:31.081Z,0.00
2018-07-07T03:06:31.057Z,0.00
2018-07-07T03:07:30.978Z,0.00
2018-07-07T03:08:30.950Z,0.00
2018-07-07T03:09:30.926Z,0.00
2018-07-07T03:10:30.896Z,0.00
2018-07-07T03:11:30.901Z,0.00
2018-07-07T03:12:30.837Z,0.00
2018-07-07T03:13:30.810Z,0.00
2018-07-07T03:14:30.810Z,0.00
2018-07-07T03:15:30.777Z,0.00
2018-07-07T03:16:30.747Z,0.00
2018-07-07T03:17:30.718Z,0.00
2018-07-07T03:18:30.697Z,0.00
2018-07-07T03:19:30.663Z,5.63
2018-07-07T03:20:30.652Z,5.63
2018-07-07T03:21:30.615Z,5.63
2018-07-07T03:22:30.592Z,5.63
2018-07-07T03:23:30.559Z,5.63
2018-07-07T03:24:30.527Z,5.63
2018-07-07T03:25:30.532Z,5.63
2018-07-07T03:26:30.489Z,5.63
2018-07-07T03:27:30.492Z,11.25
2018-07-07T03:28:30.442Z,11.25
2018-07-07T03:29:30.416Z,11.25
2018-07-07T03:30:30.389Z,11.25
2018-07-07T03:31:30.358Z,11.25
2018-07-07T03:32:30.333Z,11.25
2018-07-07T03:33:30.311Z,16.88
2018-07-07T03:34:30.282Z,16.88
2018-07-07T03:35:30.261Z,16.88
2018-07-07T03:36:30.229Z,16.88
2018-07-07T03:37:30.216Z,16.88
2018-07-07T03:38:30.181Z,16.88
2018-07-07T03:39:30.178Z,22.50
2018-07-07T03:40:30.144Z,22.50
2018-07-07T03:41:30.098Z,22.50
2018-07-07T03:42:30.075Z,22.50
2018-07-07T03:43:30.055Z,22.50
2018-07-07T03:44:30.047Z,22.50
2018-07-07T03:45:30.006Z,22.50
2018-07-07T03:46:29.978Z,28.13
2018-07-07T03:47:29.945Z,28.13
2018-07-07T03:48:29.917Z,28.13
2018-07-07T03:49:29.896Z,28.13
2018-07-07T03:50:29.868Z,28.13
2018-07-07T03:51:29.842Z,28.13
2018-07-07T03:52:29.838Z,28.13
2018-07-07T03:53:29.814Z,28.13
2018-07-07T03:54:29.807Z,28.13
2018-07-07T03:55:29.747Z,28.13
2018-07-07T03:56:29.721Z,33.75
2018-07-07T03:57:29.714Z,33.75
2018-07-07T03:58:29.671Z,33.75
2018-07-07T03:59:29.639Z,33.75
2018-07-07T04:00:29.620Z,39.38
2018-07-07T04:01:29.584Z,45.00
2018-07-07T04:02:29.559Z,50.63
2018-07-07T04:03:29.534Z,50.63
2018-07-07T04:04:29.514Z,56.25
2018-07-07T04:05:29.479Z,56.25
2018-07-07T04:06:29.486Z,61.88
2018-07-07T04:07:29.439Z,67.50
2018-07-07T04:08:29.415Z,67.50
2018-07-07T04:09:29.388Z,73.13
2018-07-07T04:10:29.356Z,73.13
2018-07-07T04:11:29.364Z,73.13
2018-07-07T04:12:29.311Z,78.75
2018-07-07T04:13:29.284Z,78.75
2018-07-07T04:14:29.260Z,84.38
2018-07-07T04:15:29.248Z,84.38
2018-07-07T04:16:29.215Z,90.00
2018-07-07T04:17:29.246Z,90.00
2018-07-07T04:18:29.158Z,90.00
2018-07-07T04:19:29.128Z,95.63
2018-07-07T04:20:29.096Z,95.63
2018-07-07T04:21:29.081Z,95.63
2018-07-07T04:22:29.075Z,95.63
2018-07-07T04:23:29.024Z,95.63
2018-07-07T04:24:28.999Z,95.63
2018-07-07T04:25:28.999Z,95.63
2018-07-07T04:26:28.947Z,95.63
2018-07-07T04:27:28.922Z,95.63
2018-07-07T04:28:49.169Z,101.25
2018-07-07T04:30:32.950Z,112.50
2018-07-07T04:31:32.729Z,112.50
2018-07-07T04:33:36.630Z,118.13
2018-07-07T04:34:36.046Z,123.75
2018-07-07T04:36:30.420Z,135.00
2018-07-07T04:37:30.362Z,140.63
2018-07-07T04:39:24.831Z,146.25
2018-07-07T04:40:24.695Z,151.88
2018-07-07T04:42:37.551Z,151.88
2018-07-07T04:43:37.850Z,157.50
2018-07-07T04:45:43.532Z,163.13
2018-07-07T04:46:43.345Z,163.13
2018-07-07T04:48:53.721Z,163.13
2018-07-07T04:49:53.701Z,163.13
2018-07-07T04:52:09.679Z,163.13
2018-07-07T04:53:09.534Z,168.75
2018-07-07T04:55:15.372Z,163.13
2018-07-07T04:56:15.303Z,163.13
2018-07-07T04:58:19.729Z,168.75
2018-07-07T04:59:19.754Z,168.75
2018-07-07T05:01:25.620Z,168.75
2018-07-07T05:02:25.467Z,168.75
2018-07-07T05:04:28.997Z,174.38
2018-07-07T05:05:28.820Z,174.38
2018-07-07T05:07:35.536Z,180.00
2018-07-07T05:08:35.489Z,180.00
2018-07-07T05:10:39.405Z,180.00
2018-07-07T05:11:39.320Z,185.63
2018-07-07T05:13:52.225Z,185.63
2018-07-07T05:14:52.103Z,185.63
2018-07-07T05:16:48.936Z,191.25
2018-07-07T05:17:48.811Z,191.25
2018-07-07T05:19:53.225Z,191.25
2018-07-07T05:20:53.285Z,191.25
2018-07-07T05:22:54.652Z,196.88
2018-07-07T05:23:54.492Z,196.88
2018-07-07T05:26:00.420Z,202.50
2018-07-07T05:27:00.342Z,202.50
2018-07-07T05:29:07.235Z,202.50
2018-07-07T05:30:07.217Z,202.50
2018-07-07T05:32:20.088Z,202.50
2018-07-07T05:33:20.021Z,208.13
2018-07-07T05:35:23.343Z,208.13
2018-07-07T05:36:23.361Z,208.13
2018-07-07T05:38:21.330Z,213.75
2018-07-07T05:39:21.117Z,213.75
2018-07-07T05:41:24.486Z,213.75
2018-07-07T05:42:24.433Z,213.75
2018-07-07T05:44:24.842Z,219.38
2018-07-07T05:45:24.824Z,219.38
2018-07-07T05:47:27.814Z,219.38
2018-07-07T05:48:27.707Z,219.38
2018-07-07T05:50:23.538Z,219.38
2018-07-07T05:51:23.548Z,225.00
2018-07-07T05:53:18.988Z,225.00
2018-07-07T05:54:17.951Z,219.38
2018-07-07T05:56:12.316Z,219.38
2018-07-07T05:57:12.209Z,225.00
2018-07-07T05:59:20.104Z,225.00
2018-07-07T06:00:20.025Z,225.00
2018-07-07T06:02:24.561Z,230.63
2018-07-07T06:03:24.345Z,230.63
2018-07-07T06:05:35.811Z,230.63
2018-07-07T06:06:35.648Z,230.63
2018-07-07T06:08:54.507Z,230.63
2018-07-07T06:09:54.580Z,230.63
2018-07-07T06:11:50.393Z,230.63
2018-07-07T06:12:50.313Z,230.63
2018-07-07T06:14:48.294Z,230.63
2018-07-07T06:15:48.231Z,230.63
2018-07-07T06:17:51.485Z,236.25
2018-07-07T06:18:51.505Z,236.25
2018-07-07T06:20:54.936Z,236.25
2018-07-07T06:21:54.794Z,236.25
2018-07-07T06:23:58.732Z,236.25
2018-07-07T06:24:58.642Z,236.25
2018-07-07T06:27:01.992Z,236.25
2018-07-07T06:28:02.076Z,236.25
2018-07-07T06:30:04.878Z,236.25
2018-07-07T06:31:04.850Z,236.25
2018-07-07T06:33:09.851Z,236.25
2018-07-07T06:34:09.833Z,241.88
2018-07-07T06:35:10.000Z,241.88
2018-07-07T06:36:09.734Z,241.88
2018-07-07T06:37:09.725Z,241.88
2018-07-07T06:38:09.711Z,241.88
2018-07-07T06:39:09.686Z,241.88
2018-07-07T06:40:09.635Z,241.88
2018-07-07T06:41:09.605Z,241.88
2018-07-07T06:42:09.593Z,241.88
2018-07-07T06:43:09.562Z,241.88
2018-07-07T06:44:09.586Z,241.88
2018-07-07T06:45:09.505Z,241.88
2018-07-07T06:46:09.486Z,241.88
2018-07-07T06:47:09.475Z,241.88
2018-07-07T06:48:09.435Z,241.88
2018-07-07T06:49:09.414Z,241.88
2018-07-07T06:50:09.445Z,241.88
2018-07-07T06:51:09.358Z,247.50
2018-07-07T06:52:09.333Z,241.88
2018-07-07T06:53:09.307Z,241.88
2018-07-07T06:54:09.287Z,241.88
2018-07-07T06:55:09.250Z,241.88
2018-07-07T06:56:09.253Z,241.88
2018-07-07T06:57:09.208Z,241.88
2018-07-07T06:58:09.179Z,241.88
2018-07-07T06:59:09.159Z,241.88
2018-07-07T07:00:09.128Z,241.88
2018-07-07T07:01:09.108Z,241.88
2018-07-07T07:02:09.083Z,241.88
2018-07-07T07:03:09.101Z,241.88
2018-07-07T07:04:09.027Z,241.88
2018-07-07T07:05:09.003Z,241.88
2018-07-07T07:06:09.019Z,241.88
2018-07-07T07:07:08.953Z,241.88
2018-07-07T07:08:08.932Z,241.88
2018-07-07T07:09:08.908Z,247.50
2018-07-07T07:10:08.889Z,247.50
2018-07-07T07:11:08.865Z,247.50
2018-07-07T07:12:08.836Z,247.50
2018-07-07T07:13:08.808Z,247.50
2018-07-07T07:14:08.857Z,247.50
2018-07-07T07:15:08.802Z,253.13
2018-07-07T07:16:08.733Z,247.50
2018-07-07T07:17:08.708Z,247.50
2018-07-07T07:18:08.676Z,247.50
2018-07-07T07:19:08.703Z,247.50
2018-07-07T07:20:08.700Z,247.50
2018-07-07T07:21:08.744Z,253.13
2018-07-07T07:22:08.666Z,253.13
2018-07-07T07:23:08.604Z,253.13
2018-07-07T07:24:08.613Z,253.13
2018-07-07T07:25:08.596Z,253.13
2018-07-07T07:26:08.624Z,253.13
2018-07-07T07:27:08.471Z,253.13
2018-07-07T07:28:08.439Z,253.13
2018-07-07T07:29:08.415Z,253.13
2018-07-07T07:30:08.392Z,253.13
2018-07-07T07:31:08.360Z,253.13
2018-07-07T07:32:08.374Z,253.13
2018-07-07T07:33:08.373Z,253.13
2018-07-07T07:34:11.210Z,253.13
2018-07-07T07:35:08.295Z,253.13
2018-07-07T07:36:08.242Z,253.13
2018-07-07T07:37:08.489Z,253.13
2018-07-07T07:38:08.260Z,258.75
2018-07-07T07:39:08.238Z,258.75
2018-07-07T07:40:08.143Z,258.75
2018-07-07T07:41:08.131Z,258.75
2018-07-07T07:42:08.151Z,258.75
2018-07-07T07:43:08.144Z,258.75
2018-07-07T07:44:08.301Z,258.75
2018-07-07T07:45:08.069Z,258.75
2018-07-07T07:46:07.998Z,258.75
2018-07-07T07:47:07.973Z,258.75
2018-07-07T07:48:07.982Z,264.38
2018-07-07T07:49:07.971Z,264.38
2018-07-07T07:50:07.904Z,264.38
2018-07-07T07:51:07.930Z,264.38
2018-07-07T07:52:07.841Z,264.38
2018-07-07T07:53:07.824Z,264.38
2018-07-07T07:54:07.800Z,264.38
2018-07-07T07:55:07.901Z,264.38
2018-07-07T07:56:07.749Z,264.38
2018-07-07T07:57:07.741Z,264.38
2018-07-07T07:58:07.702Z,270.00
2018-07-07T07:59:07.681Z,270.00
2018-07-07T08:00:07.662Z,270.00
2018-07-07T08:01:07.644Z,270.00
2018-07-07T08:02:07.669Z,270.00
2018-07-07T08:03:07.663Z,270.00
2018-07-07T08:04:07.611Z,275.63
2018-07-07T08:05:07.522Z,275.63
2018-07-07T08:06:07.508Z,275.63
2018-07-07T08:07:07.533Z,275.63
2018-07-07T08:08:07.943Z,275.63
2018-07-07T08:09:07.547Z,275.63
2018-07-07T08:10:07.598Z,275.63
2018-07-07T08:11:10.335Z,275.63
2018-07-07T08:12:07.691Z,275.63
2018-07-07T08:13:07.365Z,275.63
2018-07-07T08:14:07.732Z,281.25
2018-07-07T08:15:07.426Z,281.25
2018-07-07T08:16:07.292Z,281.25
2018-07-07T08:17:07.240Z,286.88
2018-07-07T08:18:07.239Z,281.25
2018-07-07T08:19:07.198Z,281.25
2018-07-07T08:20:07.271Z,281.25
2018-07-07T08:21:07.184Z,281.25
2018-07-07T08:22:07.193Z,286.88
2018-07-07T08:23:07.188Z,286.88
2018-07-07T08:24:07.196Z,286.88
2018-07-07T08:25:07.082Z,281.25
2018-07-07T08:26:07.024Z,281.25
2018-07-07T08:27:07.054Z,281.25
2018-07-07T08:28:07.060Z,281.25
2018-07-07T08:29:07.063Z,281.25
2018-07-07T08:30:06.950Z,281.25
2018-07-07T08:31:06.912Z,281.25
2018-07-07T08:32:06.897Z,286.88
2018-07-07T08:33:06.863Z,286.88
2018-07-07T08:34:08.786Z,286.88
2018-07-07T08:35:06.848Z,286.88
2018-07-07T08:36:06.782Z,286.88
2018-07-07T08:37:06.776Z,286.88
2018-07-07T08:38:06.739Z,286.88
2018-07-07T08:39:06.717Z,292.50
2018-07-07T08:40:06.705Z,292.50
2018-07-07T08:41:06.682Z,292.50
2018-07-07T08:42:06.676Z,292.50
2018-07-07T08:43:06.630Z,292.50
2018-07-07T08:44:06.607Z,292.50
2018-07-07T08:45:06.581Z,292.50
2018-07-07T08:46:06.567Z,298.13
2018-07-07T08:47:06.537Z,298.13
2018-07-07T08:48:06.502Z,298.13
2018-07-07T08:49:06.494Z,298.13
2018-07-07T08:50:06.508Z,298.13
2018-07-07T08:51:06.666Z,298.13
2018-07-07T08:52:06.418Z,298.13
2018-07-07T08:53:06.389Z,303.75
2018-07-07T08:54:06.383Z,303.75
2018-07-07T08:55:06.334Z,303.75
2018-07-07T08:56:06.312Z,303.75
2018-07-07T08:57:06.325Z,303.75
2018-07-07T08:58:06.276Z,303.75
2018-07-07T08:59:06.240Z,309.38
2018-07-07T09:00:06.232Z,303.75
2018-07-07T09:01:06.196Z,309.38
2018-07-07T09:02:06.205Z,309.38
2018-07-07T09:03:29.345Z,309.38
2018-07-07T09:05:10.021Z,309.38
2018-07-07T09:06:09.984Z,309.38
2018-07-07T09:08:22.892Z,315.00
2018-07-07T09:09:22.808Z,315.00
2018-07-07T09:11:27.269Z,315.00
2018-07-07T09:12:27.122Z,315.00
2018-07-07T09:14:30.643Z,315.00
2018-07-07T09:15:30.421Z,315.00
2018-07-07T09:17:43.906Z,320.63
2018-07-07T09:18:43.773Z,320.63
2018-07-07T09:20:49.719Z,320.63
2018-07-07T09:21:49.345Z,320.63
2018-07-07T09:23:52.275Z,326.25
2018-07-07T09:24:52.122Z,326.25
2018-07-07T09:25:52.175Z,326.25
2018-07-07T09:26:52.078Z,326.25
2018-07-07T09:27:52.053Z,326.25
2018-07-07T09:28:52.038Z,326.25
2018-07-07T09:29:52.011Z,326.25
2018-07-07T09:30:52.021Z,326.25
2018-07-07T09:31:51.958Z,326.25
2018-07-07T09:32:51.961Z,326.25
2018-07-07T09:33:51.919Z,331.88
2018-07-07T09:34:51.912Z,326.25
2018-07-07T09:35:51.882Z,331.88
2018-07-07T09:36:51.856Z,331.88
2018-07-07T09:37:51.834Z,331.88
2018-07-07T09:38:51.894Z,331.88
2018-07-07T09:39:51.792Z,331.88
2018-07-07T09:40:51.773Z,337.50
2018-07-07T09:41:51.738Z,337.50
2018-07-07T09:42:51.719Z,337.50
2018-07-07T09:43:51.697Z,337.50
2018-07-07T09:44:51.676Z,337.50
2018-07-07T09:45:51.645Z,337.50
2018-07-07T09:46:51.632Z,337.50
2018-07-07T09:47:51.609Z,343.13
2018-07-07T09:48:51.575Z,343.13
2018-07-07T09:49:51.562Z,343.13
2018-07-07T09:50:51.532Z,343.13
2018-07-07T09:51:51.512Z,343.13
2018-07-07T09:52:51.487Z,343.13
2018-07-07T09:53:51.464Z,348.75
2018-07-07T09:54:51.468Z,348.75
2018-07-07T09:55:51.419Z,348.75
2018-07-07T09:56:51.415Z,348.75
2018-07-07T09:57:51.375Z,354.38
2018-07-07T09:58:51.360Z,348.75
2018-07-07T09:59:51.328Z,348.75
2018-07-07T10:00:51.308Z,348.75
2018-07-07T10:01:51.320Z,354.38
2018-07-07T10:02:51.265Z,354.38
2018-07-07T10:03:51.240Z,354.38
2018-07-07T10:04:51.220Z,354.38
2018-07-07T10:05:51.225Z,354.38
2018-07-07T10:06:51.183Z,360.00
2018-07-07T10:07:51.158Z,360.00
2018-07-07T10:08:51.142Z,360.00
2018-07-07T10:09:51.196Z,360.00
2018-07-07T10:10:51.084Z,360.00
2018-07-07T10:11:51.126Z,360.00
2018-07-07T10:12:51.127Z,360.00
2018-07-07T10:13:51.083Z,360.00
2018-07-07T10:14:51.077Z,365.63
2018-07-07T10:15:51.015Z,365.63
2018-07-07T10:16:51.005Z,371.25
2018-07-07T10:17:51.029Z,365.63
2018-07-07T10:18:50.903Z,371.25
2018-07-07T10:19:50.931Z,371.25
2018-07-07T10:20:50.883Z,371.25
2018-07-07T10:21:50.842Z,371.25
2018-07-07T10:22:50.859Z,371.25
2018-07-07T10:23:50.854Z,376.88
2018-07-07T10:24:50.774Z,371.25
2018-07-07T10:25:50.754Z,376.88
2018-07-07T10:26:50.741Z,376.88
2018-07-07T10:27:50.751Z,376.88
2018-07-07T10:28:50.702Z,376.88
2018-07-07T10:29:50.683Z,382.50
2018-07-07T10:30:50.638Z,388.13
2018-07-07T10:31:50.623Z,382.50
2018-07-07T10:32:50.615Z,382.50
2018-07-07T10:33:50.593Z,388.13
2018-07-07T10:34:50.569Z,382.50
2018-07-07T10:35:50.529Z,388.13
2018-07-07T10:36:50.522Z,393.75
2018-07-07T10:37:50.492Z,393.75
2018-07-07T10:38:50.468Z,393.75
2018-07-07T10:39:50.471Z,399.38
2018-07-07T10:40:50.432Z,399.38
2018-07-07T10:41:50.397Z,399.38
2018-07-07T10:42:50.376Z,399.38
2018-07-07T10:43:50.365Z,405.00
2018-07-07T10:44:50.338Z,405.00
2018-07-07T10:45:50.495Z,405.00
2018-07-07T10:46:50.296Z,405.00
2018-07-07T10:47:50.285Z,410.63
2018-07-07T10:48:50.306Z,410.63
2018-07-07T10:49:50.227Z,410.63
2018-07-07T10:50:50.221Z,416.25
2018-07-07T10:51:50.238Z,416.25
2018-07-07T10:52:50.179Z,416.25
2018-07-07T10:53:50.157Z,421.88
2018-07-07T10:54:50.165Z,416.25
2018-07-07T10:55:50.096Z,421.88
2018-07-07T10:56:50.084Z,427.50
2018-07-07T10:57:50.067Z,427.50
2018-07-07T10:58:50.061Z,427.50
2018-07-07T10:59:50.018Z,433.13
2018-07-07T11:00:50.034Z,433.13
2018-07-07T11:01:49.970Z,433.13
2018-07-07T11:02:49.951Z,438.75
2018-07-07T11:03:49.940Z,438.75
2018-07-07T11:04:49.920Z,438.75
2018-07-07T11:05:49.922Z,438.75
2018-07-07T11:06:49.872Z,444.38
2018-07-07T11:07:49.873Z,438.75
2018-07-07T11:08:49.828Z,444.38
2018-07-07T11:09:49.841Z,444.38
2018-07-07T11:10:49.862Z,444.38
2018-07-07T11:11:49.836Z,444.38
2018-07-07T11:12:49.747Z,450.00
2018-07-07T11:13:49.733Z,450.00
2018-07-07T11:14:49.699Z,450.00
2018-07-07T11:15:49.717Z,450.00
2018-07-07T11:16:49.687Z,461.25
2018-07-07T11:17:49.642Z,455.63
2018-07-07T11:18:49.709Z,455.63
2018-07-07T11:19:49.601Z,461.25
2018-07-07T11:20:49.580Z,461.25
2018-07-07T11:21:49.548Z,461.25
2018-07-07T11:22:49.583Z,466.88
2018-07-07T11:23:49.578Z,472.50
2018-07-07T11:24:49.492Z,466.88
2018-07-07T11:25:49.476Z,472.50
2018-07-07T11:26:49.452Z,472.50
2018-07-07T11:27:49.488Z,472.50
2018-07-07T11:28:49.410Z,478.13
2018-07-07T11:29:49.409Z,483.75
2018-07-07T11:30:49.373Z,483.75
2018-07-07T11:31:49.350Z,483.75
2018-07-07T11:32:49.334Z,495.00
2018-07-07T11:33:49.298Z,500.63
2018-07-07T11:34:49.301Z,540.00
2018-07-07T11:35:49.272Z,675.00
2018-07-07T11:36:49.313Z,781.88
2018-07-07T11:37:49.225Z,815.63
2018-07-07T11:38:49.203Z,815.63
2018-07-07T11:39:49.171Z,815.63
2018-07-07T11:40:49.160Z,849.38
2018-07-07T11:41:49.138Z,849.38
2018-07-07T11:42:49.127Z,860.63
2018-07-07T11:43:49.100Z,877.50
2018-07-07T11:44:49.076Z,916.88
2018-07-07T11:45:49.059Z,967.50
2018-07-07T11:46:49.034Z,1035.00
2018-07-07T11:47:49.015Z,1119.38
2018-07-07T11:48:48.996Z,1209.38
2018-07-07T11:49:49.015Z,1282.50
2018-07-07T11:50:48.976Z,1417.50
2018-07-07T11:51:48.957Z,1636.88
2018-07-07T11:52:48.933Z,1901.25
2018-07-07T11:53:48.910Z,2418.75
2018-07-07T11:54:48.885Z,3110.63
2018-07-07T11:55:48.877Z,3043.13
2018-07-07T11:56:48.861Z,2975.63
2018-07-07T11:57:48.840Z,3082.50
2018-07-07T11:58:48.833Z,2874.38
2018-07-07T11:59:48.795Z,3121.88
2018-07-07T12:00:48.858Z,3183.75
2018-07-07T12:01:48.817Z,3470.63
2018-07-07T12:02:48.771Z,3746.25
2018-07-07T12:03:48.741Z,4078.13
2018-07-07T12:04:48.751Z,4466.25
2018-07-07T12:05:48.703Z,4848.75
2018-07-07T12:06:48.764Z,4950.00
2018-07-07T12:08:00.711Z,5844.38
2018-07-07T12:08:48.651Z,7211.25
2018-07-07T12:09:48.631Z,7402.50
2018-07-07T12:10:48.642Z,7216.88
2018-07-07T12:11:48.637Z,6795.00
2018-07-07T12:12:48.581Z,6181.88
2018-07-07T12:13:48.568Z,984.38
2018-07-07T12:14:48.566Z,2728.13
2018-07-07T12:15:48.551Z,4246.88
2018-07-07T12:16:48.521Z,4010.63
2018-07-07T12:17:48.510Z,3881.25
2018-07-07T12:18:48.497Z,3645.00
2018-07-07T12:19:48.477Z,3780.00
2018-07-07T12:20:48.455Z,3695.63
2018-07-07T12:21:48.455Z,3442.50
2018-07-07T12:22:48.433Z,3166.88
2018-07-07T12:23:48.425Z,3020.63
2018-07-07T12:24:48.429Z,2958.75
2018-07-07T12:25:48.379Z,3031.88
2018-07-07T12:26:48.359Z,3133.13
2018-07-07T12:27:48.364Z,3026.25
2018-07-07T12:28:48.368Z,2992.50
2018-07-07T12:29:48.363Z,2936.25
2018-07-07T12:30:48.311Z,2829.38
2018-07-07T12:31:48.284Z,2790.00
2018-07-07T12:32:48.290Z,2660.63
2018-07-07T12:33:48.266Z,2739.38
2018-07-07T12:34:48.256Z,2722.50
2018-07-07T12:35:48.231Z,2767.50
2018-07-07T12:36:48.297Z,2902.50
2018-07-07T12:37:48.216Z,2863.13
2018-07-07T12:38:48.242Z,2790.00
2018-07-07T12:39:48.167Z,2610.00
2018-07-07T12:40:48.226Z,2475.00
2018-07-07T12:41:48.142Z,2548.13
2018-07-07T12:42:48.133Z,2874.38
2018-07-07T12:43:48.154Z,2778.75
2018-07-07T12:44:48.121Z,2531.25
2018-07-07T12:45:48.102Z,2536.88
2018-07-07T12:46:48.081Z,2407.50
2018-07-07T12:47:48.065Z,2446.88
2018-07-07T12:48:48.046Z,2694.38
2018-07-07T12:49:48.034Z,2829.38
2018-07-07T12:50:48.030Z,2666.25
2018-07-07T12:51:48.004Z,2773.13
2018-07-07T12:52:47.993Z,2660.63
2018-07-07T12:53:47.987Z,2615.63
2018-07-07T12:54:47.974Z,2688.75
2018-07-07T12:55:47.957Z,2604.38
2018-07-07T12:56:47.941Z,2958.75
2018-07-07T12:57:47.929Z,3048.75
2018-07-07T12:58:47.928Z,3178.13
2018-07-07T12:59:47.905Z,3110.63
2018-07-07T13:00:47.899Z,3161.25
2018-07-07T13:01:47.875Z,3048.75
2018-07-07T13:02:47.876Z,2885.63
2018-07-07T13:03:47.852Z,3037.50
2018-07-07T13:04:47.845Z,3121.88
2018-07-07T13:05:47.830Z,3470.63
2018-07-07T13:06:47.817Z,3498.75
2018-07-07T13:07:47.807Z,3515.63
2018-07-07T13:08:47.816Z,4066.88
2018-07-07T13:09:47.790Z,4320.00
2018-07-07T13:10:47.768Z,4601.25
2018-07-07T13:11:47.746Z,5056.88
2018-07-07T13:12:47.738Z,5169.38
2018-07-07T13:13:47.741Z,4848.75
2018-07-07T13:14:47.738Z,4500.00
2018-07-07T13:15:47.707Z,4201.88
2018-07-07T13:16:47.698Z,4016.25
2018-07-07T13:17:47.679Z,3408.75
2018-07-07T13:18:47.687Z,3166.88
2018-07-07T13:19:47.686Z,2868.75
2018-07-07T13:20:47.708Z,2733.75
2018-07-07T13:21:47.638Z,2542.50
2018-07-07T13:22:47.610Z,2745.00
2018-07-07T13:23:47.607Z,2756.25
2018-07-07T13:24:47.650Z,2722.50
2018-07-07T13:25:47.637Z,2643.75
2018-07-07T13:26:47.600Z,2666.25
2018-07-07T13:27:47.577Z,2694.38
2018-07-07T13:28:47.550Z,2638.13
2018-07-07T13:29:47.544Z,2711.25
2018-07-07T13:30:47.558Z,2750.63
2018-07-07T13:31:47.522Z,2761.88